KAL1251 RKPC-RKSS
Flight info
| Callsign | KAL1251 |
|---|---|
| Flight time | 0h 42m |
| Altitude | 21000 |
| Route | KAMIT Y722 OLMEN |
| Aircraft | MD80/M-V/N |
Departure
| Time | 2026-05-04 06:13 |
|---|---|
| Airport | Jeju International Airport (RKPC) |
Arrival
| Time | 2026-05-04 06:55 |
|---|---|
| Airport | Gimpo International Airport (RKSS) |
| Time | Latitude | Longitude | Altitude | Speed | Heading |
|---|---|---|---|---|---|
| 2026-05-04 05:52 | 33.50640 | 126.49058 | 124 ft | 0 kts | 148° |
| 2026-05-04 05:53 | 33.50641 | 126.49058 | 124 ft | 0 kts | 148° |
| 2026-05-04 05:54 | 33.50718 | 126.48991 | 124 ft | 2 kts | 86° |
| 2026-05-04 05:55 | 33.50716 | 126.48978 | 124 ft | 0 kts | 56° |
| 2026-05-04 05:55 | 33.50712 | 126.48973 | 124 ft | 0 kts | 57° |
| 2026-05-04 06:05 | 33.50872 | 126.49282 | 124 ft | 16 kts | 59° |
| 2026-05-04 06:05 | 33.50962 | 126.49462 | 124 ft | 8 kts | 56° |
| 2026-05-04 06:05 | 33.50990 | 126.49513 | 124 ft | 6 kts | 57° |
| 2026-05-04 06:06 | 33.51013 | 126.49557 | 124 ft | 6 kts | 57° |
| 2026-05-04 06:06 | 33.51047 | 126.49608 | 124 ft | 10 kts | 31° |
| 2026-05-04 06:06 | 33.51117 | 126.49639 | 124 ft | 9 kts | 18° |
| 2026-05-04 06:06 | 33.51167 | 126.49663 | 124 ft | 5 kts | 22° |
| 2026-05-04 06:07 | 33.51194 | 126.49676 | 124 ft | 2 kts | 20° |
| 2026-05-04 06:07 | 33.51207 | 126.49683 | 124 ft | 2 kts | 21° |
| 2026-05-04 06:07 | 33.51237 | 126.49696 | 124 ft | 7 kts | 21° |
| 2026-05-04 06:07 | 33.51287 | 126.49750 | 124 ft | 12 kts | 57° |
| 2026-05-04 06:08 | 33.51361 | 126.49830 | 124 ft | 15 kts | 355° |
| 2026-05-04 06:08 | 33.51383 | 126.49822 | 124 ft | 0 kts | 328° |
| 2026-05-04 06:11 | 33.51315 | 126.49431 | 124 ft | 64 kts | 238° |
| 2026-05-04 06:11 | 33.50970 | 126.48771 | 125 ft | 122 kts | 244° |
| 2026-05-04 06:13 | 33.45958 | 126.39236 | 3947 ft | 200 kts | 237° |
| 2026-05-04 06:14 | 33.48912 | 126.30021 | 7426 ft | 279 kts | 356° |
| 2026-05-04 06:14 | 33.50835 | 126.30377 | 8153 ft | 285 kts | 20° |
| 2026-05-04 06:15 | 33.52610 | 126.31425 | 8949 ft | 288 kts | 26° |
| 2026-05-04 06:15 | 33.54365 | 126.32523 | 9711 ft | 291 kts | 26° |
| 2026-05-04 06:15 | 33.56182 | 126.33659 | 10297 ft | 302 kts | 26° |
| 2026-05-04 06:15 | 33.58150 | 126.34898 | 10299 ft | 333 kts | 27° |
| 2026-05-04 06:16 | 33.60296 | 126.36261 | 10435 ft | 358 kts | 27° |
| 2026-05-04 06:16 | 33.62524 | 126.37674 | 10808 ft | 373 kts | 27° |
| 2026-05-04 06:16 | 33.64852 | 126.39143 | 11331 ft | 383 kts | 27° |
| 2026-05-04 06:16 | 33.67249 | 126.40651 | 11930 ft | 389 kts | 27° |
| 2026-05-04 06:17 | 33.69630 | 126.42148 | 12508 ft | 395 kts | 27° |
| 2026-05-04 06:17 | 33.72085 | 126.43691 | 13085 ft | 401 kts | 27° |
| 2026-05-04 06:17 | 33.74592 | 126.45265 | 13657 ft | 406 kts | 27° |
| 2026-05-04 06:17 | 33.77074 | 126.46825 | 14202 ft | 411 kts | 27° |
| 2026-05-04 06:18 | 33.79620 | 126.48422 | 14742 ft | 415 kts | 27° |
| 2026-05-04 06:18 | 33.82195 | 126.50036 | 15266 ft | 419 kts | 27° |
| 2026-05-04 06:18 | 33.84794 | 126.51666 | 15761 ft | 424 kts | 27° |
| 2026-05-04 06:20 | 34.03565 | 126.63450 | 18900 ft | 449 kts | 26° |
| 2026-05-04 06:20 | 34.06347 | 126.65196 | 19298 ft | 452 kts | 26° |
| 2026-05-04 06:21 | 34.17648 | 126.72281 | 20736 ft | 464 kts | 26° |
| 2026-05-04 06:21 | 34.20506 | 126.74073 | 21062 ft | 464 kts | 26° |
| 2026-05-04 06:22 | 34.23398 | 126.75858 | 21105 ft | 463 kts | 23° |
| 2026-05-04 06:22 | 34.26405 | 126.77144 | 21136 ft | 462 kts | 12° |
| 2026-05-04 06:25 | 34.67816 | 126.81702 | 21101 ft | 461 kts | 2° |
| 2026-05-04 06:25 | 34.71036 | 126.82047 | 21101 ft | 461 kts | 2° |
| 2026-05-04 06:26 | 34.74210 | 126.82388 | 21101 ft | 461 kts | 2° |
| 2026-05-04 06:26 | 34.77387 | 126.82729 | 21101 ft | 461 kts | 2° |
| 2026-05-04 06:26 | 34.80563 | 126.83070 | 21101 ft | 461 kts | 2° |
| 2026-05-04 06:26 | 34.83790 | 126.83415 | 21102 ft | 461 kts | 2° |
| 2026-05-04 06:27 | 34.96480 | 126.84782 | 21102 ft | 457 kts | 1° |
| 2026-05-04 06:28 | 34.99657 | 126.85124 | 21101 ft | 454 kts | 1° |
| 2026-05-04 06:28 | 35.02764 | 126.85458 | 21101 ft | 451 kts | 0° |
| 2026-05-04 06:28 | 35.05889 | 126.85792 | 21098 ft | 448 kts | 0° |
| 2026-05-04 06:28 | 35.08964 | 126.86119 | 21099 ft | 448 kts | 0° |
| 2026-05-04 06:29 | 35.12047 | 126.86449 | 21100 ft | 448 kts | 0° |
| 2026-05-04 06:29 | 35.15147 | 126.86766 | 21100 ft | 448 kts | 0° |
| 2026-05-04 06:29 | 35.18271 | 126.87094 | 21100 ft | 448 kts | 0° |
| 2026-05-04 06:29 | 35.21353 | 126.87426 | 21100 ft | 448 kts | 0° |
| 2026-05-04 06:30 | 35.24428 | 126.87745 | 21096 ft | 448 kts | 0° |
| 2026-05-04 06:30 | 35.27548 | 126.88080 | 21091 ft | 449 kts | 0° |
| 2026-05-04 06:30 | 35.30632 | 126.88417 | 21086 ft | 449 kts | 0° |
| 2026-05-04 06:30 | 35.33757 | 126.88764 | 21080 ft | 449 kts | 0° |
| 2026-05-04 06:31 | 35.36864 | 126.89110 | 21075 ft | 448 kts | 0° |
| 2026-05-04 06:31 | 35.39941 | 126.89453 | 21072 ft | 449 kts | 0° |
| 2026-05-04 06:31 | 35.43062 | 126.89802 | 21070 ft | 449 kts | 0° |
| 2026-05-04 06:31 | 35.46137 | 126.90146 | 21067 ft | 449 kts | 0° |
| 2026-05-04 06:32 | 35.49285 | 126.90497 | 21065 ft | 449 kts | 0° |
| 2026-05-04 06:33 | 35.70982 | 126.92858 | 21063 ft | 449 kts | 0° |
| 2026-05-04 06:34 | 35.74083 | 126.93202 | 21063 ft | 449 kts | 0° |
| 2026-05-04 06:34 | 35.77170 | 126.93545 | 21063 ft | 448 kts | 0° |
| 2026-05-04 06:34 | 35.80299 | 126.93892 | 21063 ft | 449 kts | 0° |
| 2026-05-04 06:34 | 35.83374 | 126.94233 | 21063 ft | 449 kts | 0° |
| 2026-05-04 06:35 | 35.86490 | 126.94579 | 21063 ft | 449 kts | 0° |
| 2026-05-04 06:36 | 36.08200 | 126.96957 | 21063 ft | 449 kts | 0° |
| 2026-05-04 06:37 | 36.11344 | 126.97308 | 21062 ft | 449 kts | 0° |
| 2026-05-04 06:37 | 36.14432 | 126.97654 | 21059 ft | 449 kts | 0° |
| 2026-05-04 06:37 | 36.17539 | 126.97985 | 21058 ft | 449 kts | 0° |
| 2026-05-04 06:37 | 36.20649 | 126.98325 | 21058 ft | 449 kts | 0° |
| 2026-05-04 06:38 | 36.23740 | 126.98670 | 21046 ft | 449 kts | 0° |
| 2026-05-04 06:38 | 36.26877 | 126.99024 | 20784 ft | 450 kts | 0° |
| 2026-05-04 06:40 | 36.48188 | 127.00024 | 18550 ft | 431 kts | 354° |
| 2026-05-04 06:40 | 36.51180 | 126.99912 | 18197 ft | 429 kts | 354° |
| 2026-05-04 06:40 | 36.54160 | 126.99802 | 17843 ft | 426 kts | 354° |
| 2026-05-04 06:40 | 36.57085 | 126.99693 | 17495 ft | 424 kts | 354° |
| 2026-05-04 06:41 | 36.60042 | 126.99577 | 16933 ft | 424 kts | 355° |
| 2026-05-04 06:41 | 36.62954 | 126.99531 | 16477 ft | 420 kts | 359° |
| 2026-05-04 06:41 | 36.65853 | 126.99982 | 16177 ft | 421 kts | 12° |
| 2026-05-04 06:41 | 36.68650 | 127.00933 | 15801 ft | 419 kts | 12° |
| 2026-05-04 06:42 | 36.71481 | 127.01815 | 15375 ft | 416 kts | 11° |
| 2026-05-04 06:42 | 36.74272 | 127.02638 | 14951 ft | 413 kts | 10° |
| 2026-05-04 06:42 | 36.77038 | 127.03431 | 14528 ft | 410 kts | 10° |
| 2026-05-04 06:44 | 36.96026 | 127.08756 | 11532 ft | 384 kts | 11° |
| 2026-05-04 06:44 | 36.98577 | 127.09471 | 11092 ft | 378 kts | 11° |
| 2026-05-04 06:44 | 37.01075 | 127.10172 | 10994 ft | 348 kts | 10° |
| 2026-05-04 06:45 | 37.03306 | 127.10799 | 10765 ft | 319 kts | 9° |
| 2026-05-04 06:45 | 37.05434 | 127.11394 | 10659 ft | 306 kts | 9° |
| 2026-05-04 06:45 | 37.07443 | 127.11955 | 10283 ft | 293 kts | 9° |
| 2026-05-04 06:45 | 37.09404 | 127.12502 | 9679 ft | 286 kts | 8° |
| 2026-05-04 06:46 | 37.11319 | 127.13036 | 9034 ft | 281 kts | 8° |
| 2026-05-04 06:46 | 37.13202 | 127.13561 | 8390 ft | 278 kts | 8° |
| 2026-05-04 06:46 | 37.15050 | 127.14076 | 8002 ft | 269 kts | 8° |
| 2026-05-04 06:46 | 37.16863 | 127.14581 | 8025 ft | 267 kts | 8° |
| 2026-05-04 06:48 | 37.28651 | 127.13452 | 7812 ft | 262 kts | 314° |
| 2026-05-04 06:48 | 37.29949 | 127.11852 | 7385 ft | 265 kts | 315° |
| 2026-05-04 06:49 | 37.31277 | 127.10244 | 7084 ft | 261 kts | 313° |
| 2026-05-04 06:50 | 37.39937 | 126.99261 | 4359 ft | 259 kts | 315° |
| 2026-05-04 06:51 | 37.41233 | 126.97645 | 3970 ft | 262 kts | 315° |
| 2026-05-04 06:51 | 37.42508 | 126.96056 | 3732 ft | 252 kts | 315° |
| 2026-05-04 06:51 | 37.43731 | 126.94531 | 3351 ft | 246 kts | 315° |
| 2026-05-04 06:51 | 37.44923 | 126.93041 | 2940 ft | 235 kts | 315° |
| 2026-05-04 06:52 | 37.46040 | 126.91647 | 2609 ft | 219 kts | 315° |
| 2026-05-04 06:52 | 37.47090 | 126.90336 | 2265 ft | 206 kts | 315° |
| 2026-05-04 06:52 | 37.48076 | 126.89105 | 1954 ft | 195 kts | 315° |
| 2026-05-04 06:52 | 37.48977 | 126.87978 | 1717 ft | 173 kts | 314° |
| 2026-05-04 06:53 | 37.49788 | 126.86958 | 1438 ft | 158 kts | 315° |
| 2026-05-04 06:53 | 37.50532 | 126.86030 | 1196 ft | 144 kts | 314° |
| 2026-05-04 06:53 | 37.51219 | 126.85168 | 987 ft | 133 kts | 314° |
| 2026-05-04 06:53 | 37.51858 | 126.84372 | 820 ft | 128 kts | 312° |
| 2026-05-04 06:54 | 37.52491 | 126.83573 | 697 ft | 130 kts | 313° |
| 2026-05-04 06:54 | 37.53148 | 126.82773 | 541 ft | 129 kts | 313° |
| 2026-05-04 06:54 | 37.53783 | 126.81987 | 384 ft | 128 kts | 313° |
| 2026-05-04 06:54 | 37.54404 | 126.81181 | 201 ft | 128 kts | 313° |
| 2026-05-04 06:55 | 37.55023 | 126.80399 | 55 ft | 122 kts | 313° |
| 2026-05-04 06:55 | 37.55515 | 126.79781 | 64 ft | 74 kts | 314° |
| 2026-05-04 06:55 | 37.55813 | 126.79404 | 66 ft | 48 kts | 313° |
| 2026-05-04 06:55 | 37.55999 | 126.79320 | 66 ft | 24 kts | 68° |